sensor_id;sensor_type;location;lat;lon;timestamp;pressure;altitude;pressure_sealevel;temperature;humidity
58373;BME280;44177;43.356;27.672;2023-07-13T00:01:47;98227.78;;;20.14;100.00
58373;BME280;44177;43.356;27.672;2023-07-13T00:04:19;98231.69;;;20.20;100.00
58373;BME280;44177;43.356;27.672;2023-07-13T00:06:46;98217.44;;;20.18;100.00
58373;BME280;44177;43.356;27.672;2023-07-13T00:09:16;98216.25;;;20.19;100.00
58373;BME280;44177;43.356;27.672;2023-07-13T00:11:43;98213.44;;;20.23;100.00
58373;BME280;44177;43.356;27.672;2023-07-13T00:14:09;98208.72;;;20.24;100.00
58373;BME280;44177;43.356;27.672;2023-07-13T00:16:36;98213.41;;;20.27;100.00
58373;BME280;44177;43.356;27.672;2023-07-13T00:19:03;98204.72;;;20.25;100.00
58373;BME280;44177;43.356;27.672;2023-07-13T00:21:28;98206.25;;;20.29;100.00
58373;BME280;44177;43.356;27.672;2023-07-13T00:23:54;98200.72;;;20.29;100.00
58373;BME280;44177;43.356;27.672;2023-07-13T00:26:19;98206.25;;;20.29;100.00
58373;BME280;44177;43.356;27.672;2023-07-13T00:28:45;98205.53;;;20.25;100.00
58373;BME280;44177;43.356;27.672;2023-07-13T00:31:12;98205.16;;;20.23;100.00
58373;BME280;44177;43.356;27.672;2023-07-13T00:33:39;98196.88;;;20.19;100.00
58373;BME280;44177;43.356;27.672;2023-07-13T00:36:05;98199.22;;;20.21;100.00
58373;BME280;44177;43.356;27.672;2023-07-13T00:38:31;98198.81;;;20.23;100.00
58373;BME280;44177;43.356;27.672;2023-07-13T00:40:57;98187.00;;;20.18;100.00
58373;BME280;44177;43.356;27.672;2023-07-13T00:43:27;98192.53;;;20.18;100.00
58373;BME280;44177;43.356;27.672;2023-07-13T00:48:21;98176.22;;;20.28;100.00
58373;BME280;44177;43.356;27.672;2023-07-13T00:50:51;98181.38;;;20.26;100.00
58373;BME280;44177;43.356;27.672;2023-07-13T00:53:19;98175.44;;;20.27;100.00
58373;BME280;44177;43.356;27.672;2023-07-13T00:55:46;98176.63;;;20.26;100.00
58373;BME280;44177;43.356;27.672;2023-07-13T00:58:13;98172.28;;;20.25;100.00
58373;BME280;44177;43.356;27.672;2023-07-13T01:00:38;98170.28;;;20.26;100.00
58373;BME280;44177;43.356;27.672;2023-07-13T01:03:04;98164.41;;;20.24;100.00
58373;BME280;44177;43.356;27.672;2023-07-13T01:05:32;98163.69;;;20.16;100.00
58373;BME280;44177;43.356;27.672;2023-07-13T01:07:59;98156.44;;;20.26;100.00
58373;BME280;44177;43.356;27.672;2023-07-13T01:10:25;98158.44;;;20.25;100.00
58373;BME280;44177;43.356;27.672;2023-07-13T01:12:52;98164.44;;;20.20;100.00
58373;BME280;44177;43.356;27.672;2023-07-13T01:15:36;98162.03;;;20.22;100.00
58373;BME280;44177;43.356;27.672;2023-07-13T01:18:03;98147.84;;;20.16;100.00
58373;BME280;44177;43.356;27.672;2023-07-13T01:20:29;98151.00;;;20.18;100.00
58373;BME280;44177;43.356;27.672;2023-07-13T01:22:55;98150.16;;;20.22;100.00
58373;BME280;44177;43.356;27.672;2023-07-13T01:25:21;98147.81;;;20.20;100.00
58373;BME280;44177;43.356;27.672;2023-07-13T01:27:46;98144.63;;;20.22;100.00
58373;BME280;44177;43.356;27.672;2023-07-13T01:30:12;98148.59;;;20.20;100.00
58373;BME280;44177;43.356;27.672;2023-07-13T01:32:37;98143.03;;;20.24;100.00
58373;BME280;44177;43.356;27.672;2023-07-13T01:35:04;98139.78;;;20.29;100.00
58373;BME280;44177;43.356;27.672;2023-07-13T01:37:30;98142.25;;;20.24;100.00
58373;BME280;44177;43.356;27.672;2023-07-13T01:40:02;98145.38;;;20.26;100.00
58373;BME280;44177;43.356;27.672;2023-07-13T01:42:28;98146.56;;;20.25;100.00
58373;BME280;44177;43.356;27.672;2023-07-13T01:44:53;98139.00;;;20.29;100.00
58373;BME280;44177;43.356;27.672;2023-07-13T01:47:19;98135.81;;;20.30;100.00
58373;BME280;44177;43.356;27.672;2023-07-13T01:49:44;98143.31;;;20.33;100.00
58373;BME280;44177;43.356;27.672;2023-07-13T01:52:12;98131.84;;;20.31;100.00
58373;BME280;44177;43.356;27.672;2023-07-13T01:54:38;98136.56;;;20.34;100.00
58373;BME280;44177;43.356;27.672;2023-07-13T01:57:03;98138.88;;;20.40;100.00
58373;BME280;44177;43.356;27.672;2023-07-13T01:59:29;98140.41;;;20.44;100.00
58373;BME280;44177;43.356;27.672;2023-07-13T02:01:55;98126.66;;;20.37;100.00
58373;BME280;44177;43.356;27.672;2023-07-13T02:04:20;98138.06;;;20.43;100.00
58373;BME280;44177;43.356;27.672;2023-07-13T02:06:45;98144.38;;;20.43;100.00
58373;BME280;44177;43.356;27.672;2023-07-13T02:09:11;98143.22;;;20.41;100.00
58373;BME280;44177;43.356;27.672;2023-07-13T02:11:37;98143.28;;;20.37;100.00
58373;BME280;44177;43.356;27.672;2023-07-13T02:14:03;98130.22;;;20.34;99.68
58373;BME280;44177;43.356;27.672;2023-07-13T02:16:29;98126.75;;;20.30;99.22
58373;BME280;44177;43.356;27.672;2023-07-13T02:18:56;98118.44;;;20.30;99.49
58373;BME280;44177;43.356;27.672;2023-07-13T02:21:22;98133.84;;;20.31;99.24
58373;BME280;44177;43.356;27.672;2023-07-13T02:23:49;98136.66;;;20.27;99.61
58373;BME280;44177;43.356;27.672;2023-07-13T02:26:14;98140.22;;;20.28;99.36
58373;BME280;44177;43.356;27.672;2023-07-13T02:28:40;98130.78;;;20.22;99.77
58373;BME280;44177;43.356;27.672;2023-07-13T02:31:09;98139.88;;;20.22;99.59
58373;BME280;44177;43.356;27.672;2023-07-13T02:33:35;98139.06;;;20.25;98.79
58373;BME280;44177;43.356;27.672;2023-07-13T02:36:01;98136.28;;;20.25;98.24
58373;BME280;44177;43.356;27.672;2023-07-13T02:38:26;98140.63;;;20.26;98.30
58373;BME280;44177;43.356;27.672;2023-07-13T02:40:52;98148.50;;;20.28;98.56
58373;BME280;44177;43.356;27.672;2023-07-13T02:43:18;98142.97;;;20.28;98.39
58373;BME280;44177;43.356;27.672;2023-07-13T02:45:44;98138.59;;;20.30;98.19
58373;BME280;44177;43.356;27.672;2023-07-13T02:48:10;98143.75;;;20.32;98.55
58373;BME280;44177;43.356;27.672;2023-07-13T02:50:36;98146.03;;;20.37;98.56
58373;BME280;44177;43.356;27.672;2023-07-13T02:53:01;98143.31;;;20.33;98.05
58373;BME280;44177;43.356;27.672;2023-07-13T02:55:27;98151.13;;;20.42;97.47
58373;BME280;44177;43.356;27.672;2023-07-13T02:57:52;98149.91;;;20.43;97.55
58373;BME280;44177;43.356;27.672;2023-07-13T03:00:19;98145.94;;;20.44;97.12
58373;BME280;44177;43.356;27.672;2023-07-13T03:02:45;98143.19;;;20.44;97.09
58373;BME280;44177;43.356;27.672;2023-07-13T03:05:11;98135.59;;;20.48;96.73
58373;BME280;44177;43.356;27.672;2023-07-13T03:07:38;98140.28;;;20.55;95.73
58373;BME280;44177;43.356;27.672;2023-07-13T03:10:05;98139.81;;;20.60;95.26
58373;BME280;44177;43.356;27.672;2023-07-13T03:12:32;98136.63;;;20.62;94.90
58373;BME280;44177;43.356;27.672;2023-07-13T03:14:57;98141.63;;;20.74;94.32
58373;BME280;44177;43.356;27.672;2023-07-13T03:17:23;98138.41;;;20.79;93.67
58373;BME280;44177;43.356;27.672;2023-07-13T03:19:48;98138.72;;;20.85;93.32
58373;BME280;44177;43.356;27.672;2023-07-13T03:24:34;98119.03;;;20.79;92.89
58373;BME280;44177;43.356;27.672;2023-07-13T03:27:01;98146.16;;;20.92;92.74
58373;BME280;44177;43.356;27.672;2023-07-13T03:29:27;98135.78;;;20.96;92.36
58373;BME280;44177;43.356;27.672;2023-07-13T03:31:52;98138.44;;;21.07;91.95
58373;BME280;44177;43.356;27.672;2023-07-13T03:34:18;98141.03;;;21.18;91.21
58373;BME280;44177;43.356;27.672;2023-07-13T03:36:43;98140.56;;;21.23;90.83
58373;BME280;44177;43.356;27.672;2023-07-13T03:39:09;98148.00;;;21.29;90.52
58373;BME280;44177;43.356;27.672;2023-07-13T03:41:34;98142.72;;;21.35;90.00
58373;BME280;44177;43.356;27.672;2023-07-13T03:44:00;98142.22;;;21.44;89.58
58373;BME280;44177;43.356;27.672;2023-07-13T03:46:25;98145.63;;;21.52;89.41
58373;BME280;44177;43.356;27.672;2023-07-13T03:48:51;98141.94;;;21.62;89.17
58373;BME280;44177;43.356;27.672;2023-07-13T03:51:17;98142.88;;;21.75;88.29
58373;BME280;44177;43.356;27.672;2023-07-13T03:53:44;98147.84;;;21.88;87.72
58373;BME280;44177;43.356;27.672;2023-07-13T03:56:11;98139.81;;;21.93;87.13
58373;BME280;44177;43.356;27.672;2023-07-13T03:58:39;98153.72;;;22.14;86.24
58373;BME280;44177;43.356;27.672;2023-07-13T04:01:06;98151.22;;;22.19;85.68
58373;BME280;44177;43.356;27.672;2023-07-13T04:03:33;98147.38;;;22.33;86.34
58373;BME280;44177;43.356;27.672;2023-07-13T04:06:00;98142.91;;;22.39;85.41
58373;BME280;44177;43.356;27.672;2023-07-13T04:08:30;98156.38;;;22.61;84.86
58373;BME280;44177;43.356;27.672;2023-07-13T04:10:57;98152.22;;;22.69;83.53
58373;BME280;44177;43.356;27.672;2023-07-13T04:13:24;98164.81;;;22.94;82.64
58373;BME280;44177;43.356;27.672;2023-07-13T04:15:50;98163.63;;;23.12;82.74
58373;BME280;44177;43.356;27.672;2023-07-13T04:18:15;98156.28;;;23.22;82.46
58373;BME280;44177;43.356;27.672;2023-07-13T04:20:41;98162.31;;;23.37;82.33
58373;BME280;44177;43.356;27.672;2023-07-13T04:23:06;98162.81;;;23.48;82.34
58373;BME280;44177;43.356;27.672;2023-07-13T04:25:32;98166.47;;;23.61;81.10
58373;BME280;44177;43.356;27.672;2023-07-13T04:27:57;98159.94;;;23.68;79.67
58373;BME280;44177;43.356;27.672;2023-07-13T04:30:23;98163.50;;;23.85;78.15
58373;BME280;44177;43.356;27.672;2023-07-13T04:32:51;98163.16;;;24.00;78.07
58373;BME280;44177;43.356;27.672;2023-07-13T04:35:18;98171.66;;;24.09;76.48
58373;BME280;44177;43.356;27.672;2023-07-13T04:37:46;98173.56;;;24.12;75.98
58373;BME280;44177;43.356;27.672;2023-07-13T04:40:12;98171.38;;;24.20;76.13
58373;BME280;44177;43.356;27.672;2023-07-13T04:42:38;98165.06;;;24.32;75.39
58373;BME280;44177;43.356;27.672;2023-07-13T04:45:08;98176.59;;;24.47;71.73
58373;BME280;44177;43.356;27.672;2023-07-13T04:47:33;98170.59;;;24.62;72.92
58373;BME280;44177;43.356;27.672;2023-07-13T04:49:59;98179.66;;;24.66;70.04
58373;BME280;44177;43.356;27.672;2023-07-13T04:52:24;98173.00;;;24.76;70.07
58373;BME280;44177;43.356;27.672;2023-07-13T04:54:50;98183.06;;;24.86;68.92
58373;BME280;44177;43.356;27.672;2023-07-13T04:57:15;98180.41;;;24.96;69.89
58373;BME280;44177;43.356;27.672;2023-07-13T04:59:41;98173.16;;;24.98;67.85
58373;BME280;44177;43.356;27.672;2023-07-13T05:02:07;98177.53;;;25.12;66.22
58373;BME280;44177;43.356;27.672;2023-07-13T05:04:32;98182.44;;;25.34;66.28
58373;BME280;44177;43.356;27.672;2023-07-13T05:06:59;98180.53;;;25.44;65.23
58373;BME280;44177;43.356;27.672;2023-07-13T05:09:24;98174.31;;;25.52;66.28
58373;BME280;44177;43.356;27.672;2023-07-13T05:11:50;98188.44;;;25.71;65.27
58373;BME280;44177;43.356;27.672;2023-07-13T05:14:15;98178.34;;;25.86;63.88
58373;BME280;44177;43.356;27.672;2023-07-13T05:16:41;98170.84;;;25.96;63.74
58373;BME280;44177;43.356;27.672;2023-07-13T05:19:08;98180.84;;;26.20;63.25
58373;BME280;44177;43.356;27.672;2023-07-13T05:21:33;98183.78;;;26.38;62.12
58373;BME280;44177;43.356;27.672;2023-07-13T05:23:59;98179.81;;;26.48;61.28
58373;BME280;44177;43.356;27.672;2023-07-13T05:26:24;98186.72;;;26.57;61.45
58373;BME280;44177;43.356;27.672;2023-07-13T05:28:50;98183.28;;;26.75;59.97
58373;BME280;44177;43.356;27.672;2023-07-13T05:31:15;98191.00;;;26.93;59.00
58373;BME280;44177;43.356;27.672;2023-07-13T05:33:41;98189.53;;;27.10;58.20
58373;BME280;44177;43.356;27.672;2023-07-13T05:36:07;98190.50;;;27.17;58.00
58373;BME280;44177;43.356;27.672;2023-07-13T05:38:32;98192.69;;;27.22;57.94
58373;BME280;44177;43.356;27.672;2023-07-13T05:40:58;98186.03;;;27.29;59.08
58373;BME280;44177;43.356;27.672;2023-07-13T05:43:24;98189.53;;;27.42;59.01
58373;BME280;44177;43.356;27.672;2023-07-13T05:45:54;98199.94;;;27.41;56.51
58373;BME280;44177;43.356;27.672;2023-07-13T05:48:19;98201.88;;;27.54;57.91
58373;BME280;44177;43.356;27.672;2023-07-13T05:50:45;98206.88;;;27.68;58.18
58373;BME280;44177;43.356;27.672;2023-07-13T05:53:12;98197.56;;;27.90;58.13
58373;BME280;44177;43.356;27.672;2023-07-13T05:55:47;98192.03;;;28.18;53.75
58373;BME280;44177;43.356;27.672;2023-07-13T05:58:16;98193.28;;;28.35;53.20
58373;BME280;44177;43.356;27.672;2023-07-13T06:00:42;98194.53;;;28.53;52.98
58373;BME280;44177;43.356;27.672;2023-07-13T06:03:07;98193.25;;;28.73;52.38
58373;BME280;44177;43.356;27.672;2023-07-13T06:05:34;98201.00;;;28.87;51.50
58373;BME280;44177;43.356;27.672;2023-07-13T06:08:00;98197.03;;;29.12;51.28
58373;BME280;44177;43.356;27.672;2023-07-13T06:10:25;98204.16;;;29.41;51.29
58373;BME280;44177;43.356;27.672;2023-07-13T06:12:51;98205.19;;;29.53;50.90
58373;BME280;44177;43.356;27.672;2023-07-13T06:15:17;98198.44;;;29.84;49.53
58373;BME280;44177;43.356;27.672;2023-07-13T06:17:43;98193.97;;;30.02;48.15
58373;BME280;44177;43.356;27.672;2023-07-13T06:20:09;98203.75;;;30.31;47.89
58373;BME280;44177;43.356;27.672;2023-07-13T06:22:35;98206.72;;;30.51;47.10
58373;BME280;44177;43.356;27.672;2023-07-13T06:25:00;98182.47;;;30.69;46.53
58373;BME280;44177;43.356;27.672;2023-07-13T06:27:25;98197.53;;;30.96;45.70
58373;BME280;44177;43.356;27.672;2023-07-13T06:29:51;98193.25;;;31.15;46.03
58373;BME280;44177;43.356;27.672;2023-07-13T06:32:16;98195.16;;;31.39;45.60
58373;BME280;44177;43.356;27.672;2023-07-13T06:34:42;98181.56;;;31.58;44.44
58373;BME280;44177;43.356;27.672;2023-07-13T06:37:08;98196.72;;;31.76;44.15
58373;BME280;44177;43.356;27.672;2023-07-13T06:39:34;98192.84;;;31.94;44.27
58373;BME280;44177;43.356;27.672;2023-07-13T06:41:59;98195.66;;;32.15;43.81
58373;BME280;44177;43.356;27.672;2023-07-13T06:44:25;98202.66;;;32.40;42.57
58373;BME280;44177;43.356;27.672;2023-07-13T06:46:50;98203.31;;;32.55;41.30
58373;BME280;44177;43.356;27.672;2023-07-13T06:49:16;98203.97;;;32.71;41.17
58373;BME280;44177;43.356;27.672;2023-07-13T06:51:41;98200.88;;;32.69;40.94
58373;BME280;44177;43.356;27.672;2023-07-13T06:54:06;98193.38;;;32.86;40.53
58373;BME280;44177;43.356;27.672;2023-07-13T06:56:32;98187.84;;;33.03;41.39
58373;BME280;44177;43.356;27.672;2023-07-13T06:58:57;98190.25;;;33.11;40.13
58373;BME280;44177;43.356;27.672;2023-07-13T07:01:23;98189.16;;;33.34;40.23
58373;BME280;44177;43.356;27.672;2023-07-13T07:03:48;98175.06;;;33.46;39.81
58373;BME280;44177;43.356;27.672;2023-07-13T07:06:18;98182.19;;;33.79;40.01
58373;BME280;44177;43.356;27.672;2023-07-13T07:08:44;98189.81;;;34.10;39.78
58373;BME280;44177;43.356;27.672;2023-07-13T07:11:16;98190.91;;;34.30;37.96
58373;BME280;44177;43.356;27.672;2023-07-13T07:13:43;98193.84;;;34.58;37.81
58373;BME280;44177;43.356;27.672;2023-07-13T07:16:08;98189.97;;;34.61;38.71
58373;BME280;44177;43.356;27.672;2023-07-13T07:18:34;98196.47;;;34.90;38.31
58373;BME280;44177;43.356;27.672;2023-07-13T07:21:00;98191.59;;;35.08;36.08
58373;BME280;44177;43.356;27.672;2023-07-13T07:23:25;98188.19;;;35.32;36.05
58373;BME280;44177;43.356;27.672;2023-07-13T07:25:51;98190.78;;;35.47;35.61
58373;BME280;44177;43.356;27.672;2023-07-13T07:28:17;98187.44;;;35.43;36.02
58373;BME280;44177;43.356;27.672;2023-07-13T07:30:46;98188.19;;;35.55;36.07
58373;BME280;44177;43.356;27.672;2023-07-13T07:33:12;98195.66;;;35.52;35.36
58373;BME280;44177;43.356;27.672;2023-07-13T07:35:38;98187.63;;;35.73;35.74
58373;BME280;44177;43.356;27.672;2023-07-13T07:38:03;98192.41;;;36.13;35.13
58373;BME280;44177;43.356;27.672;2023-07-13T07:40:29;98200.53;;;36.39;34.58
58373;BME280;44177;43.356;27.672;2023-07-13T07:42:55;98199.84;;;36.69;35.24
58373;BME280;44177;43.356;27.672;2023-07-13T07:45:21;98188.31;;;36.92;33.24
58373;BME280;44177;43.356;27.672;2023-07-13T07:47:47;98194.66;;;37.09;31.83
58373;BME280;44177;43.356;27.672;2023-07-13T07:50:13;98185.91;;;37.32;31.81
58373;BME280;44177;43.356;27.672;2023-07-13T07:52:38;98187.06;;;37.48;32.79
58373;BME280;44177;43.356;27.672;2023-07-13T07:55:06;98185.81;;;37.68;31.90
58373;BME280;44177;43.356;27.672;2023-07-13T07:57:31;98182.94;;;37.93;32.37
58373;BME280;44177;43.356;27.672;2023-07-13T07:59:57;98182.13;;;38.17;31.56
58373;BME280;44177;43.356;27.672;2023-07-13T08:02:22;98171.06;;;38.14;31.65
58373;BME280;44177;43.356;27.672;2023-07-13T08:04:47;98174.59;;;38.39;31.55
58373;BME280;44177;43.356;27.672;2023-07-13T08:07:13;98172.75;;;38.42;31.68
58373;BME280;44177;43.356;27.672;2023-07-13T08:09:38;98170.25;;;38.70;30.73
58373;BME280;44177;43.356;27.672;2023-07-13T08:12:04;98170.09;;;38.82;30.46
58373;BME280;44177;43.356;27.672;2023-07-13T08:14:30;98174.06;;;38.92;29.45
58373;BME280;44177;43.356;27.672;2023-07-13T08:16:55;98172.28;;;39.22;29.92
58373;BME280;44177;43.356;27.672;2023-07-13T08:19:21;98175.94;;;39.36;29.36
58373;BME280;44177;43.356;27.672;2023-07-13T08:21:46;98176.94;;;39.52;29.76
58373;BME280;44177;43.356;27.672;2023-07-13T08:24:13;98170.75;;;39.21;28.02
58373;BME280;44177;43.356;27.672;2023-07-13T08:26:39;98172.59;;;39.18;29.19
58373;BME280;44177;43.356;27.672;2023-07-13T08:29:04;98166.38;;;39.46;28.21
58373;BME280;44177;43.356;27.672;2023-07-13T08:31:30;98174.78;;;39.85;28.61
58373;BME280;44177;43.356;27.672;2023-07-13T08:33:55;98161.69;;;39.89;28.17
58373;BME280;44177;43.356;27.672;2023-07-13T08:36:21;98158.06;;;39.89;27.70
58373;BME280;44177;43.356;27.672;2023-07-13T08:38:46;98166.06;;;40.17;27.04
58373;BME280;44177;43.356;27.672;2023-07-13T08:41:14;98152.41;;;40.10;27.73
58373;BME280;44177;43.356;27.672;2023-07-13T08:43:41;98153.50;;;40.07;27.25
58373;BME280;44177;43.356;27.672;2023-07-13T08:46:12;98144.69;;;40.32;27.74
58373;BME280;44177;43.356;27.672;2023-07-13T08:48:43;98152.00;;;40.19;27.91
58373;BME280;44177;43.356;27.672;2023-07-13T08:51:32;98148.03;;;40.43;28.09
58373;BME280;44177;43.356;27.672;2023-07-13T08:54:02;98159.88;;;40.82;24.90
58373;BME280;44177;43.356;27.672;2023-07-13T08:56:31;98157.88;;;41.12;25.71
58373;BME280;44177;43.356;27.672;2023-07-13T08:59:00;98152.91;;;41.41;24.80
58373;BME280;44177;43.356;27.672;2023-07-13T09:12:02;98153.47;;;41.40;26.01
58373;BME280;44177;43.356;27.672;2023-07-13T09:14:39;98153.41;;;41.90;24.86
58373;BME280;44177;43.356;27.672;2023-07-13T09:17:14;98148.94;;;42.18;23.29
58373;BME280;44177;43.356;27.672;2023-07-13T09:19:41;98152.34;;;42.08;24.17
58373;BME280;44177;43.356;27.672;2023-07-13T09:22:14;98155.59;;;41.39;23.56
58373;BME280;44177;43.356;27.672;2023-07-13T09:27:19;98155.16;;;41.64;24.37
58373;BME280;44177;43.356;27.672;2023-07-13T09:29:51;98150.66;;;41.76;24.27
58373;BME280;44177;43.356;27.672;2023-07-13T09:32:22;98144.34;;;42.14;23.54
58373;BME280;44177;43.356;27.672;2023-07-13T09:34:55;98146.78;;;41.95;22.57
58373;BME280;44177;43.356;27.672;2023-07-13T09:37:22;98138.38;;;41.97;21.82
58373;BME280;44177;43.356;27.672;2023-07-13T09:39:49;98130.66;;;42.36;22.17
58373;BME280;44177;43.356;27.672;2023-07-13T09:42:17;98129.84;;;42.28;22.30
58373;BME280;44177;43.356;27.672;2023-07-13T09:44:54;98137.03;;;42.58;22.34
58373;BME280;44177;43.356;27.672;2023-07-13T09:47:24;98128.75;;;42.31;22.79
58373;BME280;44177;43.356;27.672;2023-07-13T09:50:09;98128.66;;;42.75;22.88
58373;BME280;44177;43.356;27.672;2023-07-13T09:55:32;98103.56;;;43.30;22.94
58373;BME280;44177;43.356;27.672;2023-07-13T10:00:42;98110.25;;;43.97;21.67
58373;BME280;44177;43.356;27.672;2023-07-13T10:03:31;98097.31;;;44.21;20.64
58373;BME280;44177;43.356;27.672;2023-07-13T10:06:17;98085.19;;;44.30;21.01
58373;BME280;44177;43.356;27.672;2023-07-13T10:12:15;98076.28;;;44.11;20.55
58373;BME280;44177;43.356;27.672;2023-07-13T10:14:41;98085.53;;;44.35;21.55
58373;BME280;44177;43.356;27.672;2023-07-13T10:17:12;98083.38;;;44.10;20.91
58373;BME280;44177;43.356;27.672;2023-07-13T10:19:41;98079.00;;;44.42;21.24
58373;BME280;44177;43.356;27.672;2023-07-13T10:22:24;98073.63;;;44.63;21.75
58373;BME280;44177;43.356;27.672;2023-07-13T10:24:51;98088.97;;;44.41;20.70
58373;BME280;44177;43.356;27.672;2023-07-13T10:27:25;98076.59;;;44.81;21.73
58373;BME280;44177;43.356;27.672;2023-07-13T10:32:46;98068.72;;;43.90;21.21
58373;BME280;44177;43.356;27.672;2023-07-13T10:35:14;98071.09;;;43.04;22.05
58373;BME280;44177;43.356;27.672;2023-07-13T10:37:57;98072.84;;;43.72;20.84
58373;BME280;44177;43.356;27.672;2023-07-13T10:40:30;98061.78;;;44.34;21.35
58373;BME280;44177;43.356;27.672;2023-07-13T10:42:59;98065.47;;;43.94;21.60
58373;BME280;44177;43.356;27.672;2023-07-13T10:45:27;98067.97;;;44.23;21.00
58373;BME280;44177;43.356;27.672;2023-07-13T10:47:55;98065.28;;;44.25;20.60
58373;BME280;44177;43.356;27.672;2023-07-13T10:50:26;98059.03;;;44.19;20.66
58373;BME280;44177;43.356;27.672;2023-07-13T10:53:02;98060.06;;;44.39;19.92
58373;BME280;44177;43.356;27.672;2023-07-13T10:58:41;98066.66;;;43.83;21.05
58373;BME280;44177;43.356;27.672;2023-07-13T11:01:14;98064.81;;;44.11;21.00
58373;BME280;44177;43.356;27.672;2023-07-13T11:03:53;98057.97;;;44.82;20.20
58373;BME280;44177;43.356;27.672;2023-07-13T11:18:44;98064.75;;;43.78;20.96
58373;BME280;44177;43.356;27.672;2023-07-13T11:23:44;98059.84;;;44.11;20.28
58373;BME280;44177;43.356;27.672;2023-07-13T11:26:50;98061.16;;;44.69;20.56
58373;BME280;44177;43.356;27.672;2023-07-13T11:32:00;98061.97;;;44.87;19.36
58373;BME280;44177;43.356;27.672;2023-07-13T11:34:38;98058.59;;;44.73;20.67
58373;BME280;44177;43.356;27.672;2023-07-13T11:37:11;98058.34;;;43.62;20.14
58373;BME280;44177;43.356;27.672;2023-07-13T11:39:42;98056.56;;;42.87;22.29
58373;BME280;44177;43.356;27.672;2023-07-13T11:42:12;98054.06;;;41.69;22.77
58373;BME280;44177;43.356;27.672;2023-07-13T11:44:43;98045.69;;;41.42;22.81
58373;BME280;44177;43.356;27.672;2023-07-13T11:47:20;98044.13;;;41.70;23.07
58373;BME280;44177;43.356;27.672;2023-07-13T11:49:53;98048.44;;;41.56;24.07
58373;BME280;44177;43.356;27.672;2023-07-13T11:52:23;98047.69;;;41.18;23.38
58373;BME280;44177;43.356;27.672;2023-07-13T11:54:54;98040.41;;;41.91;22.20
58373;BME280;44177;43.356;27.672;2023-07-13T11:57:26;98038.22;;;42.51;21.66
58373;BME280;44177;43.356;27.672;2023-07-13T11:59:54;98048.16;;;42.66;21.21
58373;BME280;44177;43.356;27.672;2023-07-13T12:02:33;98049.88;;;41.70;22.97
58373;BME280;44177;43.356;27.672;2023-07-13T12:05:00;98045.41;;;41.25;23.48
58373;BME280;44177;43.356;27.672;2023-07-13T12:07:30;98038.63;;;41.35;23.06
58373;BME280;44177;43.356;27.672;2023-07-13T12:10:23;98029.75;;;42.14;22.43
58373;BME280;44177;43.356;27.672;2023-07-13T12:12:57;98031.53;;;42.41;21.72
58373;BME280;44177;43.356;27.672;2023-07-13T12:15:28;98034.38;;;42.72;22.35
58373;BME280;44177;43.356;27.672;2023-07-13T12:17:56;98030.56;;;42.85;22.53
58373;BME280;44177;43.356;27.672;2023-07-13T12:20:25;98019.00;;;43.31;20.85
58373;BME280;44177;43.356;27.672;2023-07-13T12:22:52;98016.22;;;43.64;21.10
58373;BME280;44177;43.356;27.672;2023-07-13T12:25:18;98015.72;;;43.83;21.77
58373;BME280;44177;43.356;27.672;2023-07-13T12:27:49;98011.84;;;43.89;21.61
58373;BME280;44177;43.356;27.672;2023-07-13T12:30:32;98013.16;;;44.28;20.61
58373;BME280;44177;43.356;27.672;2023-07-13T12:33:10;98002.56;;;44.56;20.82
58373;BME280;44177;43.356;27.672;2023-07-13T12:35:50;97990.97;;;44.21;19.42
58373;BME280;44177;43.356;27.672;2023-07-13T12:38:18;97988.63;;;44.53;21.05
58373;BME280;44177;43.356;27.672;2023-07-13T12:40:49;97978.56;;;44.44;20.05
58373;BME280;44177;43.356;27.672;2023-07-13T12:43:16;97976.53;;;44.29;20.18
58373;BME280;44177;43.356;27.672;2023-07-13T12:46:17;97975.16;;;44.38;19.72
58373;BME280;44177;43.356;27.672;2023-07-13T12:48:43;97965.66;;;44.02;20.21
58373;BME280;44177;43.356;27.672;2023-07-13T12:51:13;97971.75;;;44.06;20.27
58373;BME280;44177;43.356;27.672;2023-07-13T12:53:41;97975.19;;;43.72;20.18
58373;BME280;44177;43.356;27.672;2023-07-13T12:56:21;97977.41;;;42.68;20.82
58373;BME280;44177;43.356;27.672;2023-07-13T12:58:48;97975.13;;;41.97;25.17
58373;BME280;44177;43.356;27.672;2023-07-13T13:01:23;97973.63;;;42.19;25.80
58373;BME280;44177;43.356;27.672;2023-07-13T13:03:52;97971.66;;;41.83;26.52
58373;BME280;44177;43.356;27.672;2023-07-13T13:08:47;97972.19;;;41.29;27.23
58373;BME280;44177;43.356;27.672;2023-07-13T13:11:17;97972.72;;;41.12;27.54
58373;BME280;44177;43.356;27.672;2023-07-13T13:13:43;97977.59;;;40.04;28.79
58373;BME280;44177;43.356;27.672;2023-07-13T13:16:17;97960.38;;;39.96;29.10
58373;BME280;44177;43.356;27.672;2023-07-13T13:18:44;97963.31;;;39.08;30.36
58373;BME280;44177;43.356;27.672;2023-07-13T13:21:10;97972.69;;;38.49;30.71
58373;BME280;44177;43.356;27.672;2023-07-13T13:23:37;97957.38;;;38.38;31.18
58373;BME280;44177;43.356;27.672;2023-07-13T13:26:03;97944.75;;;37.50;32.33
58373;BME280;44177;43.356;27.672;2023-07-13T13:28:29;97951.28;;;37.44;33.02
58373;BME280;44177;43.356;27.672;2023-07-13T13:30:54;97971.59;;;37.10;33.02
58373;BME280;44177;43.356;27.672;2023-07-13T13:33:21;97980.28;;;36.44;34.21
58373;BME280;44177;43.356;27.672;2023-07-13T13:35:47;97986.31;;;36.29;34.92
58373;BME280;44177;43.356;27.672;2023-07-13T13:38:33;97980.25;;;36.13;34.96
58373;BME280;44177;43.356;27.672;2023-07-13T13:40:58;97976.78;;;35.48;36.01
58373;BME280;44177;43.356;27.672;2023-07-13T13:43:25;97974.94;;;35.56;36.58
58373;BME280;44177;43.356;27.672;2023-07-13T13:45:53;97972.63;;;35.55;36.34